createdAt,value
2023-02-17T00:01:32.383Z,11.24
2023-02-17T00:04:00.368Z,11.25
2023-02-17T00:06:30.729Z,11.28
2023-02-17T00:08:59.634Z,11.25
2023-02-17T00:11:28.592Z,11.28
2023-02-17T00:13:56.564Z,11.30
2023-02-17T00:16:26.635Z,11.29
2023-02-17T00:19:02.094Z,11.27
2023-02-17T00:21:31.786Z,11.21
2023-02-17T00:23:59.550Z,11.28
2023-02-17T00:26:26.780Z,11.25
2023-02-17T00:28:53.656Z,11.25
2023-02-17T00:31:22.874Z,11.14
2023-02-17T00:33:50.257Z,11.19
2023-02-17T00:36:20.077Z,11.16
2023-02-17T00:38:48.778Z,11.11
2023-02-17T00:41:17.546Z,11.14
2023-02-17T00:43:45.405Z,11.08
2023-02-17T00:46:12.427Z,11.13
2023-02-17T00:48:39.515Z,11.14
2023-02-17T00:51:07.134Z,11.14
2023-02-17T00:53:34.016Z,11.15
2023-02-17T00:56:01.004Z,11.10
2023-02-17T00:58:28.223Z,11.08
2023-02-17T01:00:58.754Z,11.14
2023-02-17T01:03:27.008Z,11.11
2023-02-17T01:05:55.442Z,11.10
2023-02-17T01:08:24.432Z,11.08
2023-02-17T01:10:52.800Z,11.07
2023-02-17T01:13:20.222Z,11.11
2023-02-17T01:15:52.547Z,11.12
2023-02-17T01:18:23.168Z,11.03
2023-02-17T01:20:50.173Z,11.03
2023-02-17T01:23:17.663Z,11.07
2023-02-17T01:25:47.082Z,11.03
2023-02-17T01:28:21.360Z,11.09
2023-02-17T01:30:49.843Z,11.06
2023-02-17T01:33:16.801Z,11.02
2023-02-17T01:35:43.774Z,11.00
2023-02-17T01:38:10.980Z,11.01
2023-02-17T01:40:37.863Z,11.00
2023-02-17T01:43:06.507Z,10.91
2023-02-17T01:45:47.226Z,10.93
2023-02-17T01:48:22.177Z,10.87
2023-02-17T01:50:54.853Z,10.91
2023-02-17T01:53:32.428Z,10.90
2023-02-17T01:55:59.467Z,10.93
2023-02-17T01:58:28.442Z,10.88
2023-02-17T02:00:58.468Z,10.82
2023-02-17T02:03:26.855Z,10.87
2023-02-17T02:05:53.654Z,10.86
2023-02-17T02:08:20.505Z,10.85
2023-02-17T02:10:47.379Z,10.83
2023-02-17T02:13:14.553Z,10.81
2023-02-17T02:16:02.506Z,10.83
2023-02-17T02:19:29.425Z,10.73
2023-02-17T02:22:26.770Z,10.78
2023-02-17T02:25:30.878Z,10.68
2023-02-17T02:28:27.111Z,10.71
2023-02-17T02:31:11.486Z,10.64
2023-02-17T02:33:48.221Z,10.59
2023-02-17T02:36:52.372Z,10.51
2023-02-17T02:39:29.361Z,10.45
2023-02-17T02:42:03.548Z,10.41
2023-02-17T02:44:30.929Z,10.40
2023-02-17T02:47:07.899Z,10.37
2023-02-17T02:49:36.912Z,10.30
2023-02-17T02:52:33.777Z,10.30
2023-02-17T02:55:20.903Z,10.28
2023-02-17T02:58:22.795Z,10.24
2023-02-17T03:00:58.233Z,10.22
2023-02-17T03:03:37.748Z,10.19
2023-02-17T03:06:16.021Z,10.11
2023-02-17T03:09:17.605Z,10.18
2023-02-17T03:11:45.750Z,10.19
2023-02-17T03:14:17.598Z,10.19
2023-02-17T03:16:46.914Z,10.21
2023-02-17T03:19:15.585Z,10.21
2023-02-17T03:21:52.489Z,10.27
2023-02-17T03:24:19.782Z,10.25
2023-02-17T03:26:46.674Z,10.31
2023-02-17T03:29:13.601Z,10.33
2023-02-17T03:31:40.868Z,10.38
2023-02-17T03:34:08.616Z,10.38
2023-02-17T03:36:35.462Z,10.41
2023-02-17T03:39:02.373Z,10.42
2023-02-17T03:41:29.418Z,10.43
2023-02-17T03:43:56.239Z,10.36
2023-02-17T03:46:23.004Z,10.40
2023-02-17T03:48:50.153Z,10.31
2023-02-17T03:51:23.736Z,10.36
2023-02-17T03:53:51.520Z,10.31
2023-02-17T03:56:19.459Z,10.23
2023-02-17T03:58:46.319Z,10.22
2023-02-17T04:01:14.699Z,10.19
2023-02-17T04:03:42.676Z,10.20
2023-02-17T04:06:10.752Z,10.17
2023-02-17T04:08:39.023Z,10.09
2023-02-17T04:11:08.554Z,10.10
2023-02-17T04:13:35.996Z,10.05
2023-02-17T04:16:04.847Z,10.11
2023-02-17T04:18:32.554Z,10.14
2023-02-17T04:20:59.513Z,10.14
2023-02-17T04:23:26.377Z,10.16
2023-02-17T04:25:53.411Z,10.17
2023-02-17T04:28:21.591Z,10.17
2023-02-17T04:30:50.783Z,10.18
2023-02-17T04:33:18.317Z,10.20
2023-02-17T04:35:45.505Z,10.18
2023-02-17T04:38:12.322Z,10.18
2023-02-17T04:40:40.372Z,10.24
2023-02-17T04:43:08.642Z,10.27
2023-02-17T04:45:37.228Z,10.24
2023-02-17T04:48:04.676Z,10.27
2023-02-17T04:50:31.659Z,10.28
2023-02-17T04:52:58.823Z,10.25
2023-02-17T04:55:25.725Z,10.28
2023-02-17T04:57:52.622Z,10.28
2023-02-17T05:00:20.015Z,10.27
2023-02-17T05:02:46.855Z,10.27
2023-02-17T05:05:16.569Z,10.28
2023-02-17T05:07:43.376Z,10.25
2023-02-17T05:10:10.834Z,10.26
2023-02-17T05:12:37.976Z,10.31
2023-02-17T05:15:05.752Z,10.33
2023-02-17T05:17:33.312Z,10.29
2023-02-17T05:20:00.682Z,10.35
2023-02-17T05:22:28.220Z,10.31
2023-02-17T05:24:55.098Z,10.34
2023-02-17T05:27:22.117Z,10.39
2023-02-17T05:29:49.097Z,10.44
2023-02-17T05:32:15.938Z,10.48
2023-02-17T05:34:43.167Z,10.59
2023-02-17T05:37:10.353Z,10.60
2023-02-17T05:39:37.317Z,10.62
2023-02-17T05:42:04.500Z,10.60
2023-02-17T05:44:31.384Z,10.66
2023-02-17T05:46:58.463Z,10.67
2023-02-17T05:49:25.265Z,10.66
2023-02-17T05:51:52.028Z,10.68
2023-02-17T05:54:19.280Z,10.70
2023-02-17T05:56:46.140Z,10.72
2023-02-17T05:59:12.960Z,10.73
2023-02-17T06:01:39.719Z,10.70
2023-02-17T06:04:06.488Z,10.71
2023-02-17T06:06:33.318Z,10.68
2023-02-17T06:09:00.517Z,10.73
2023-02-17T06:11:27.324Z,10.69
2023-02-17T06:13:54.112Z,10.70
2023-02-17T06:16:21.055Z,10.72
2023-02-17T06:18:47.889Z,10.73
2023-02-17T06:21:15.110Z,10.73
2023-02-17T06:23:41.924Z,10.75
2023-02-17T06:26:08.875Z,10.70
2023-02-17T06:28:38.780Z,10.77
2023-02-17T06:31:05.822Z,10.80
2023-02-17T06:33:32.854Z,10.77
2023-02-17T06:36:00.030Z,10.78
2023-02-17T06:38:27.157Z,10.84
2023-02-17T06:40:54.641Z,10.89
2023-02-17T06:43:21.625Z,10.89
2023-02-17T06:45:48.741Z,10.87
2023-02-17T06:48:15.626Z,10.87
2023-02-17T06:50:42.469Z,10.88
2023-02-17T06:53:09.279Z,10.92
2023-02-17T06:55:37.395Z,10.96
2023-02-17T06:58:04.597Z,10.95
2023-02-17T07:00:31.703Z,10.98
2023-02-17T07:02:59.220Z,11.01
2023-02-17T07:05:26.116Z,10.99
2023-02-17T07:07:53.738Z,10.91
2023-02-17T07:10:20.886Z,10.98
2023-02-17T07:12:47.725Z,10.95
2023-02-17T07:15:15.288Z,10.88
2023-02-17T07:17:42.069Z,10.89
2023-02-17T07:20:09.775Z,10.87
2023-02-17T07:22:36.823Z,10.93
2023-02-17T07:25:04.635Z,10.89
2023-02-17T07:27:32.431Z,10.96
2023-02-17T07:29:59.277Z,10.91
2023-02-17T07:32:26.191Z,10.93
2023-02-17T07:34:53.172Z,10.91
2023-02-17T07:37:21.958Z,10.89
2023-02-17T07:39:49.442Z,10.90
2023-02-17T07:42:16.340Z,10.86
2023-02-17T07:44:43.490Z,10.93
2023-02-17T07:47:10.273Z,10.84
2023-02-17T07:49:37.043Z,10.91
2023-02-17T07:52:05.375Z,10.95
2023-02-17T07:54:32.389Z,10.92
2023-02-17T07:56:59.810Z,11.00
2023-02-17T07:59:27.051Z,11.02
2023-02-17T08:01:54.021Z,11.04
2023-02-17T08:04:21.102Z,11.08
2023-02-17T08:06:48.003Z,11.13
2023-02-17T08:09:33.707Z,11.15
2023-02-17T08:12:19.476Z,11.20
2023-02-17T08:14:46.308Z,11.14
2023-02-17T08:17:13.147Z,11.21
2023-02-17T08:19:48.195Z,11.23
2023-02-17T08:22:17.524Z,11.26
2023-02-17T08:24:44.985Z,11.29
2023-02-17T08:27:11.853Z,11.32
2023-02-17T08:29:38.799Z,11.29
2023-02-17T08:32:05.760Z,11.27
2023-02-17T08:34:35.926Z,11.37
2023-02-17T08:37:05.625Z,11.40
2023-02-17T08:39:34.418Z,11.42
2023-02-17T08:42:02.415Z,11.52
2023-02-17T08:44:29.500Z,11.61
2023-02-17T08:46:56.499Z,11.60
2023-02-17T08:49:28.621Z,11.72
2023-02-17T08:51:55.933Z,11.74
2023-02-17T08:54:22.771Z,11.79
2023-02-17T08:56:49.598Z,11.87
2023-02-17T08:59:16.455Z,11.92
2023-02-17T09:01:44.400Z,11.97
2023-02-17T09:04:14.433Z,12.01
2023-02-17T09:06:48.800Z,12.08
2023-02-17T09:09:19.601Z,12.16
2023-02-17T09:11:46.631Z,12.28
2023-02-17T09:14:13.873Z,12.37
2023-02-17T09:16:41.679Z,12.44
2023-02-17T09:19:08.900Z,12.45
2023-02-17T09:21:35.748Z,12.50
2023-02-17T09:24:02.655Z,12.56
2023-02-17T09:26:29.790Z,12.61
2023-02-17T09:28:58.151Z,12.65
2023-02-17T09:31:27.244Z,12.65
2023-02-17T09:33:54.670Z,12.67
2023-02-17T09:36:29.150Z,12.70
2023-02-17T09:38:56.837Z,12.54
2023-02-17T09:41:32.190Z,12.58
2023-02-17T09:43:59.812Z,12.61
2023-02-17T09:46:33.736Z,12.58
2023-02-17T09:49:08.718Z,12.51
2023-02-17T09:52:09.427Z,12.57
2023-02-17T09:55:04.298Z,12.53
2023-02-17T09:57:41.926Z,12.48
2023-02-17T10:00:44.289Z,12.51
2023-02-17T10:03:36.503Z,12.52
2023-02-17T10:06:16.739Z,12.57
2023-02-17T10:09:13.848Z,12.54
2023-02-17T10:11:52.911Z,12.58
2023-02-17T10:14:29.628Z,12.62
2023-02-17T10:17:21.613Z,12.63
2023-02-17T10:19:56.524Z,12.68
2023-02-17T10:22:25.009Z,12.79
2023-02-17T10:24:52.429Z,12.78
2023-02-17T10:27:38.270Z,12.83
2023-02-17T10:30:05.745Z,12.85
2023-02-17T10:32:53.226Z,12.88
2023-02-17T10:35:53.472Z,12.91
2023-02-17T10:38:44.730Z,12.94
2023-02-17T10:41:16.387Z,12.98
2023-02-17T10:43:45.401Z,12.94
2023-02-17T10:46:16.113Z,13.00
2023-02-17T10:48:51.335Z,13.01
2023-02-17T10:51:26.274Z,13.09
2023-02-17T10:54:07.894Z,13.16
2023-02-17T10:56:39.922Z,13.32
2023-02-17T10:59:24.088Z,13.42
2023-02-17T11:01:51.550Z,13.51
2023-02-17T11:04:18.371Z,13.67
2023-02-17T11:06:50.768Z,13.73
2023-02-17T11:09:23.469Z,13.79
2023-02-17T11:12:17.409Z,13.93
2023-02-17T11:14:47.837Z,13.98
2023-02-17T11:17:39.422Z,14.03
2023-02-17T11:20:14.093Z,14.10
2023-02-17T11:23:01.420Z,14.10
2023-02-17T11:25:35.576Z,14.00
2023-02-17T11:28:07.533Z,13.96
2023-02-17T11:30:38.272Z,13.95
2023-02-17T11:33:22.737Z,13.97
2023-02-17T11:35:55.064Z,14.07
2023-02-17T11:38:28.969Z,14.08
2023-02-17T11:41:02.949Z,14.15
2023-02-17T11:43:33.172Z,14.20
2023-02-17T11:46:23.469Z,14.15
2023-02-17T11:49:37.081Z,14.09
2023-02-17T11:52:28.423Z,14.04
2023-02-17T11:55:11.639Z,14.03
2023-02-17T11:57:53.568Z,14.01
2023-02-17T12:00:31.440Z,14.08
2023-02-17T12:03:16.743Z,14.22
2023-02-17T12:06:09.322Z,14.15
2023-02-17T12:08:49.054Z,14.11
2023-02-17T12:11:30.892Z,14.09
2023-02-17T12:14:14.848Z,14.10
2023-02-17T12:16:44.468Z,14.07
2023-02-17T12:19:42.273Z,14.08
2023-02-17T12:22:55.347Z,14.03
2023-02-17T12:25:48.274Z,13.98
2023-02-17T12:28:55.096Z,14.08
2023-02-17T12:31:48.102Z,14.20
2023-02-17T12:34:30.368Z,14.29
2023-02-17T12:36:59.878Z,14.50
2023-02-17T12:39:42.282Z,14.67
2023-02-17T12:42:21.027Z,14.88
2023-02-17T12:45:08.188Z,15.01
2023-02-17T12:47:59.538Z,15.08
2023-02-17T12:50:34.265Z,15.12
2023-02-17T12:53:11.419Z,15.02
2023-02-17T12:55:49.039Z,15.00
2023-02-17T12:58:25.802Z,14.90
2023-02-17T13:01:11.134Z,14.88
2023-02-17T13:03:38.207Z,14.81
2023-02-17T13:06:32.421Z,14.72
2023-02-17T13:09:17.327Z,14.76
2023-02-17T13:11:45.775Z,14.80
2023-02-17T13:14:27.811Z,14.68
2023-02-17T13:16:55.497Z,14.64
2023-02-17T13:19:34.807Z,14.61
2023-02-17T13:22:03.460Z,14.47
2023-02-17T13:24:52.546Z,14.39
2023-02-17T13:27:28.506Z,14.42
2023-02-17T13:30:22.581Z,14.32
2023-02-17T13:33:29.539Z,14.20
2023-02-17T13:35:56.503Z,14.26
2023-02-17T13:38:32.420Z,14.17
2023-02-17T13:41:04.807Z,14.12
2023-02-17T13:43:41.506Z,14.12
2023-02-17T13:46:20.287Z,14.09
2023-02-17T13:48:59.031Z,14.15
2023-02-17T13:51:29.498Z,14.16
2023-02-17T13:53:56.534Z,14.15
2023-02-17T13:56:28.046Z,14.18
2023-02-17T13:59:07.290Z,14.19
2023-02-17T14:01:38.753Z,14.19
2023-02-17T14:04:26.844Z,14.24
2023-02-17T14:06:57.360Z,14.19
2023-02-17T14:09:34.467Z,14.17
2023-02-17T14:12:21.108Z,14.07
2023-02-17T14:14:48.636Z,14.14
2023-02-17T14:17:32.718Z,14.06
2023-02-17T14:20:01.362Z,14.12
2023-02-17T14:22:33.852Z,14.02
2023-02-17T14:25:28.569Z,13.91
2023-02-17T14:27:56.437Z,13.89
2023-02-17T14:30:29.763Z,13.97
2023-02-17T14:33:17.978Z,13.96
2023-02-17T14:36:06.567Z,13.99
2023-02-17T14:38:41.716Z,13.95
2023-02-17T14:41:10.265Z,13.93
2023-02-17T14:43:37.657Z,13.92
2023-02-17T14:46:04.889Z,13.94
2023-02-17T14:48:31.987Z,13.93
2023-02-17T14:50:59.692Z,13.88
2023-02-17T14:53:33.386Z,13.94
2023-02-17T14:56:26.100Z,13.94
2023-02-17T14:58:53.969Z,13.92
2023-02-17T15:01:24.157Z,13.83
2023-02-17T15:03:52.641Z,13.79
2023-02-17T15:06:28.813Z,13.74
2023-02-17T15:08:57.049Z,13.84
2023-02-17T15:11:34.566Z,13.83
2023-02-17T15:14:03.025Z,13.71
2023-02-17T15:16:30.574Z,13.71
2023-02-17T15:18:57.823Z,13.75
2023-02-17T15:21:34.127Z,13.69
2023-02-17T15:24:03.058Z,13.64
2023-02-17T15:26:30.983Z,13.59
2023-02-17T15:28:58.682Z,13.56
2023-02-17T15:31:30.152Z,13.53
2023-02-17T15:34:00.084Z,13.43
2023-02-17T15:36:28.795Z,13.45
2023-02-17T15:38:55.946Z,13.38
2023-02-17T15:41:26.418Z,13.40
2023-02-17T15:43:56.397Z,13.36
2023-02-17T15:46:31.437Z,13.26
2023-02-17T15:48:58.169Z,13.22
2023-02-17T15:51:25.585Z,13.17
2023-02-17T15:53:52.423Z,13.11
2023-02-17T15:56:23.504Z,13.11
2023-02-17T15:58:51.064Z,13.05
2023-02-17T16:01:38.499Z,13.01
2023-02-17T16:04:06.851Z,13.00
2023-02-17T16:06:33.772Z,13.01
2023-02-17T16:09:00.658Z,12.96
2023-02-17T16:11:30.023Z,12.90
2023-02-17T16:13:57.105Z,12.83
2023-02-17T16:16:32.937Z,12.92
2023-02-17T16:19:01.046Z,12.86
2023-02-17T16:21:28.488Z,12.87
2023-02-17T16:23:59.844Z,12.81
2023-02-17T16:26:34.670Z,12.77
2023-02-17T16:29:06.627Z,12.81
2023-02-17T16:31:35.935Z,12.76
2023-02-17T16:34:03.185Z,12.70
2023-02-17T16:36:34.582Z,12.76
2023-02-17T16:39:11.924Z,12.75
2023-02-17T16:41:39.345Z,12.70
2023-02-17T16:44:07.881Z,12.75
2023-02-17T16:46:37.367Z,12.75
2023-02-17T16:49:28.463Z,12.59
2023-02-17T16:51:55.673Z,12.68
2023-02-17T16:54:22.468Z,12.62
2023-02-17T16:56:51.621Z,12.54
2023-02-17T16:59:24.514Z,12.42
2023-02-17T17:01:53.491Z,12.43
2023-02-17T17:04:21.714Z,12.38
2023-02-17T17:06:51.719Z,12.37
2023-02-17T17:09:23.939Z,12.29
2023-02-17T17:11:51.211Z,12.16
2023-02-17T17:14:19.447Z,12.15
2023-02-17T17:16:57.255Z,12.03
2023-02-17T17:19:24.714Z,12.00
2023-02-17T17:21:52.060Z,11.91
2023-02-17T17:24:19.018Z,11.82
2023-02-17T17:26:50.490Z,11.83
2023-02-17T17:29:19.743Z,11.84
2023-02-17T17:31:48.683Z,11.82
2023-02-17T17:34:15.542Z,11.85
2023-02-17T17:36:45.671Z,11.78
2023-02-17T17:39:22.853Z,11.86
2023-02-17T17:41:51.144Z,11.80
2023-02-17T17:44:19.048Z,11.79
2023-02-17T17:46:45.874Z,11.82
2023-02-17T17:49:15.578Z,11.80
2023-02-17T17:51:43.102Z,11.74
2023-02-17T17:54:10.132Z,11.81
2023-02-17T17:56:43.125Z,11.81
2023-02-17T17:59:12.275Z,11.81
2023-02-17T18:01:39.358Z,11.81
2023-02-17T18:04:08.953Z,11.85
2023-02-17T18:06:49.413Z,11.83
2023-02-17T18:09:31.083Z,11.89
2023-02-17T18:12:04.300Z,11.85
2023-02-17T18:14:32.140Z,11.87
2023-02-17T18:16:59.561Z,11.87
2023-02-17T18:19:26.952Z,11.93
2023-02-17T18:21:53.744Z,11.86
2023-02-17T18:24:20.806Z,11.89
2023-02-17T18:26:47.748Z,11.94
2023-02-17T18:29:14.607Z,11.94
2023-02-17T18:31:41.867Z,11.90
2023-02-17T18:34:08.751Z,11.96
2023-02-17T18:36:35.567Z,12.01
2023-02-17T18:39:02.398Z,11.99
2023-02-17T18:41:31.697Z,12.00
2023-02-17T18:44:01.751Z,11.96
2023-02-17T18:46:29.077Z,11.95
2023-02-17T18:48:56.930Z,11.99
2023-02-17T18:51:27.740Z,12.01
2023-02-17T18:53:56.668Z,12.00
2023-02-17T18:56:27.394Z,11.96
2023-02-17T18:58:57.934Z,11.98
2023-02-17T19:01:33.831Z,11.97
2023-02-17T19:04:00.914Z,11.95
2023-02-17T19:06:32.360Z,11.97
2023-02-17T19:09:01.132Z,11.94
2023-02-17T19:11:28.233Z,11.98
2023-02-17T19:13:55.127Z,11.93
2023-02-17T19:16:25.901Z,11.88
2023-02-17T19:18:53.626Z,11.94
2023-02-17T19:21:21.830Z,11.96
2023-02-17T19:23:51.055Z,11.98
2023-02-17T19:26:18.690Z,11.92
2023-02-17T19:28:46.559Z,11.93
2023-02-17T19:31:17.560Z,11.97
2023-02-17T19:33:46.548Z,11.98
2023-02-17T19:36:21.808Z,12.00
2023-02-17T19:38:51.112Z,11.96
2023-02-17T19:41:19.540Z,12.02
2023-02-17T19:43:47.278Z,12.01
2023-02-17T19:46:26.943Z,11.98
2023-02-17T19:48:54.244Z,11.97
2023-02-17T19:51:21.364Z,11.97
2023-02-17T19:53:48.929Z,11.99
2023-02-17T19:56:19.591Z,11.98
2023-02-17T19:58:48.316Z,11.98
2023-02-17T20:01:28.722Z,11.92
2023-02-17T20:03:57.059Z,11.97
2023-02-17T20:06:31.684Z,12.01
2023-02-17T20:09:02.913Z,11.98
2023-02-17T20:11:32.037Z,11.95
2023-02-17T20:14:01.688Z,12.00
2023-02-17T20:16:30.358Z,11.96
2023-02-17T20:18:57.350Z,11.95
2023-02-17T20:21:28.575Z,11.93
2023-02-17T20:23:56.023Z,11.85
2023-02-17T20:26:29.723Z,11.80
2023-02-17T20:28:57.685Z,11.80
2023-02-17T20:31:26.285Z,11.83
2023-02-17T20:33:53.267Z,11.82
2023-02-17T20:36:22.368Z,11.81
2023-02-17T20:38:50.524Z,11.73
2023-02-17T20:41:20.442Z,11.78
2023-02-17T20:43:48.303Z,11.74
2023-02-17T20:46:22.690Z,11.74
2023-02-17T20:48:50.199Z,11.65
2023-02-17T20:51:17.205Z,11.71
2023-02-17T20:53:43.979Z,11.66
2023-02-17T20:56:18.287Z,11.66
2023-02-17T20:58:46.483Z,11.67
2023-02-17T21:01:13.903Z,11.67
2023-02-17T21:03:41.105Z,11.62
2023-02-17T21:06:31.666Z,11.54
2023-02-17T21:09:06.669Z,11.60
2023-02-17T21:11:36.436Z,11.66
2023-02-17T21:14:04.135Z,11.64
2023-02-17T21:16:32.234Z,11.65
2023-02-17T21:19:01.373Z,11.65
2023-02-17T21:21:30.039Z,11.64
2023-02-17T21:23:58.471Z,11.63
2023-02-17T21:26:25.582Z,11.62
2023-02-17T21:28:52.538Z,11.59
2023-02-17T21:31:19.802Z,11.56
2023-02-17T21:33:46.758Z,11.57
2023-02-17T21:36:18.794Z,11.61
2023-02-17T21:38:47.544Z,11.54
2023-02-17T21:41:22.815Z,11.62
2023-02-17T21:44:08.745Z,11.60
2023-02-17T21:46:37.541Z,11.58
2023-02-17T21:49:04.887Z,11.60
2023-02-17T21:51:32.248Z,11.59
2023-02-17T21:53:59.473Z,11.60
2023-02-17T21:56:26.731Z,11.61
2023-02-17T21:58:56.131Z,11.59
2023-02-17T22:01:26.422Z,11.62
2023-02-17T22:03:54.146Z,11.57
2023-02-17T22:06:35.711Z,11.57
2023-02-17T22:09:03.777Z,11.60
2023-02-17T22:11:36.904Z,11.56
2023-02-17T22:14:12.157Z,11.56
2023-02-17T22:16:39.403Z,11.47
2023-02-17T22:19:08.760Z,11.53
2023-02-17T22:21:36.062Z,11.51
2023-02-17T22:24:03.357Z,11.48
2023-02-17T22:26:31.118Z,11.51
2023-02-17T22:28:58.226Z,11.54
2023-02-17T22:31:28.889Z,11.54
2023-02-17T22:33:58.415Z,11.49
2023-02-17T22:36:27.575Z,11.54
2023-02-17T22:38:55.018Z,11.57
2023-02-17T22:41:25.272Z,11.54
2023-02-17T22:43:53.182Z,11.54
2023-02-17T22:46:23.243Z,11.49
2023-02-17T22:48:52.183Z,11.43
2023-02-17T22:51:26.757Z,11.47
2023-02-17T22:53:53.666Z,11.49
2023-02-17T22:56:21.821Z,11.46
2023-02-17T22:58:54.026Z,11.44
2023-02-17T23:01:21.334Z,11.45
2023-02-17T23:03:54.007Z,11.45
2023-02-17T23:06:28.648Z,11.37
2023-02-17T23:08:56.554Z,11.35
2023-02-17T23:11:45.689Z,11.35
2023-02-17T23:14:14.033Z,11.32
2023-02-17T23:16:41.224Z,11.39
2023-02-17T23:19:11.163Z,11.36
2023-02-17T23:21:43.250Z,11.28
2023-02-17T23:24:10.280Z,11.32
2023-02-17T23:26:37.282Z,11.36
2023-02-17T23:29:05.038Z,11.30
2023-02-17T23:31:33.192Z,11.28
2023-02-17T23:34:00.205Z,11.32
2023-02-17T23:36:27.369Z,11.35
2023-02-17T23:38:56.002Z,11.32
2023-02-17T23:41:23.072Z,11.28
2023-02-17T23:43:50.033Z,11.34
2023-02-17T23:46:17.081Z,11.34
2023-02-17T23:48:43.986Z,11.31
2023-02-17T23:51:18.038Z,11.29
2023-02-17T23:53:45.697Z,11.22
2023-02-17T23:56:19.734Z,11.21
2023-02-17T23:58:47.134Z,11.22
